Crew | Aerofun Virtual



 METAR AND TAF INFORMATION
METAR FOR ESSB
ADDS - METARS form results

(0313 UTC 23 September 2019)
Data provider http://aviationweather.gov/metar/data/
 
METAR text: ESSB 230250Z AUTO 00000KT 9999 NCD M00/M00 Q1024
Conditions at: ESSB (STOCKHOLM/BROMMA, SE) observed 0250 UTC 23 September 2019
Temperature: 0.0°C (32°F)
Dewpoint: 0.0°C (32°F) [RH = 100%]
Pressure (altimeter): 30.24 inches Hg (1024.0 mb)
Winds: calm
Visibility: 6 or more miles (10+ km)
Ceiling: at least 12,000 feet AGL
Clouds: sky clear below 12,000 feet AGL
Weather: no significant weather observed at this time

METAR text: ESSB 230220Z AUTO 33001KT 9999 NCD 00/00 Q1024
Conditions at: ESSB (STOCKHOLM/BROMMA, SE) observed 0220 UTC 23 September 2019
Temperature: 0.0°C (32°F)
Dewpoint: 0.0°C (32°F) [RH = 100%]
Pressure (altimeter): 30.24 inches Hg (1024.0 mb)
Winds: from the NNW (330 degrees) at 1 MPH (1 knots; 0.5 m/s)
Visibility: 6 or more miles (10+ km)
Ceiling: at least 12,000 feet AGL
Clouds: sky clear below 12,000 feet AGL
Weather: no significant weather observed at this time

Forecast for: ESSB (STOCKHOLM/BROMMA, SE)
Text: TAF ESSB 230230Z 2303/2312 VRB03KT CAVOK
Forecast period: 0300 to 1200 UTC 23 September 2019
Forecast type: FROM: standard forecast or significant change
Winds: variable direction winds at 3 MPH (3 knots; 1.5 m/s)
Visibility: 6 or more miles 10+ km)
Ceiling: unknown
Clouds: missing
Weather: NSW  (no significant weather)

 AIRPORT MAP

 RUNWAY INFORMATION
Runway 12 Runway length 5472 ft Runway width 148 ft
Runway elevation 46 ft Runway displaced threshold 0 ft Runway heading 125
Runway 30 Runway length 5472 ft Runway width 148 ft
Runway elevation 42 ft Runway displaced threshold 0 ft Runway heading 305

 AIRPORT FREQUENCIES
Type AFIS Name AFIS Frequency 119.4 MHZ
Type APP Name APP Frequency 120.15 MHZ
Type ATIS Name ATIS Frequency 122.45 MHZ
Type GND Name GND Frequency 121.6 MHZ
Type TWR Name TWR Frequency 118.1 MHZ

 AIRPORT NEAR NAVIGATION AIDS
Type NDB Name Nacka Frequency 335 KHZ
Type NDB Name Bromma Frequency 394 KHZ
Type NDB Name Bromma Frequency 322 KHZ